createdAt,value
2022-11-23T00:01:35.882Z,28.58
2022-11-23T00:04:11.887Z,28.52
2022-11-23T00:06:40.004Z,29.13
2022-11-23T00:09:08.752Z,28.42
2022-11-23T00:11:36.636Z,25.00
2022-11-23T00:14:04.570Z,26.58
2022-11-23T00:16:32.011Z,26.08
2022-11-23T00:19:01.397Z,25.75
2022-11-23T00:21:32.616Z,26.65
2022-11-23T00:23:59.955Z,25.40
2022-11-23T00:26:27.448Z,27.55
2022-11-23T00:28:55.101Z,26.50
2022-11-23T00:31:27.263Z,25.37
2022-11-23T00:33:56.921Z,26.67
2022-11-23T00:36:26.780Z,27.17
2022-11-23T00:38:54.691Z,25.92
2022-11-23T00:41:26.262Z,27.88
2022-11-23T00:43:53.630Z,26.20
2022-11-23T00:46:28.538Z,26.80
2022-11-23T00:48:57.772Z,25.30
2022-11-23T00:51:36.154Z,25.65
2022-11-23T00:54:05.583Z,25.42
2022-11-23T00:56:35.573Z,23.48
2022-11-23T00:59:04.109Z,23.60
2022-11-23T01:01:36.912Z,24.95
2022-11-23T01:04:07.371Z,26.38
2022-11-23T01:06:40.257Z,27.75
2022-11-23T01:09:18.589Z,27.20
2022-11-23T01:11:46.043Z,25.77
2022-11-23T01:14:34.946Z,23.90
2022-11-23T01:17:05.165Z,24.48
2022-11-23T01:19:35.314Z,24.40
2022-11-23T01:22:02.546Z,23.58
2022-11-23T01:24:30.061Z,23.33
2022-11-23T01:26:57.480Z,21.95
2022-11-23T01:29:25.858Z,24.52
2022-11-23T01:31:53.084Z,25.83
2022-11-23T01:34:22.064Z,24.20
2022-11-23T01:36:50.784Z,23.67
2022-11-23T01:44:32.165Z,22.90
2022-11-23T01:47:07.360Z,25.83
2022-11-23T01:49:46.856Z,26.42
2022-11-23T01:52:23.159Z,24.38
2022-11-23T01:54:59.246Z,21.50
2022-11-23T01:57:41.548Z,25.58
2022-11-23T02:00:10.243Z,23.98
2022-11-23T02:02:55.342Z,24.25
2022-11-23T02:05:47.840Z,25.45
2022-11-23T02:08:17.468Z,23.73
2022-11-23T02:10:45.484Z,24.80
2022-11-23T02:13:13.963Z,25.35
2022-11-23T02:15:41.635Z,23.88
2022-11-23T02:18:24.880Z,24.75
2022-11-23T02:20:53.009Z,25.27
2022-11-23T02:23:55.925Z,25.30
2022-11-23T02:26:28.211Z,27.35
2022-11-23T02:29:11.331Z,26.30
2022-11-23T02:31:38.716Z,27.38
2022-11-23T02:34:05.881Z,27.27
2022-11-23T02:36:45.285Z,28.17
2022-11-23T02:39:49.108Z,28.77
2022-11-23T02:42:16.537Z,27.52
2022-11-23T02:45:08.351Z,25.38
2022-11-23T02:47:37.581Z,26.42
2022-11-23T02:50:05.420Z,27.23
2022-11-23T02:52:32.583Z,27.83
2022-11-23T02:54:59.922Z,26.42
2022-11-23T02:57:27.081Z,25.80
2022-11-23T02:59:54.251Z,27.55
2022-11-23T03:02:22.020Z,27.27
2022-11-23T03:04:49.244Z,26.27
2022-11-23T03:07:19.445Z,26.35
2022-11-23T03:09:48.773Z,27.52
2022-11-23T03:12:16.716Z,28.35
2022-11-23T03:14:44.445Z,29.75
2022-11-23T03:17:11.581Z,28.48
2022-11-23T03:19:41.847Z,29.65
2022-11-23T03:22:10.652Z,29.70
2022-11-23T03:24:38.108Z,27.90
2022-11-23T03:27:06.536Z,27.95
2022-11-23T03:29:34.513Z,29.00
2022-11-23T03:32:08.788Z,28.45
2022-11-23T03:34:36.128Z,26.50
2022-11-23T03:37:04.460Z,28.52
2022-11-23T03:39:33.096Z,30.27
2022-11-23T03:42:19.107Z,28.75
2022-11-23T03:44:47.272Z,27.35
2022-11-23T03:47:16.391Z,25.63
2022-11-23T03:49:44.132Z,27.63
2022-11-23T03:52:11.295Z,27.73
2022-11-23T03:54:38.579Z,28.52
2022-11-23T03:57:06.360Z,29.58
2022-11-23T03:59:33.976Z,27.90
2022-11-23T04:02:01.376Z,27.27
2022-11-23T04:04:33.241Z,27.02
2022-11-23T04:07:08.622Z,24.50
2022-11-23T04:09:41.232Z,26.98
2022-11-23T04:12:23.372Z,25.80
2022-11-23T04:14:50.678Z,26.20
2022-11-23T04:17:18.696Z,27.23
2022-11-23T04:19:45.911Z,34.35
2022-11-23T04:22:15.095Z,32.30
2022-11-23T04:24:43.151Z,31.67
2022-11-23T04:27:10.460Z,30.95
2022-11-23T04:29:38.477Z,32.10
2022-11-23T04:32:05.753Z,34.03
2022-11-23T04:34:33.865Z,32.97
2022-11-23T04:37:04.323Z,32.88
2022-11-23T04:39:38.420Z,30.15
2022-11-23T04:42:14.542Z,30.48
2022-11-23T04:44:48.169Z,25.70
2022-11-23T04:47:15.893Z,23.40
2022-11-23T04:49:45.489Z,23.92
2022-11-23T04:52:12.689Z,25.55
2022-11-23T04:54:45.933Z,25.23
2022-11-23T04:57:13.091Z,24.77
2022-11-23T04:59:40.846Z,26.48
2022-11-23T05:02:08.343Z,24.25
2022-11-23T05:04:45.866Z,26.95
2022-11-23T05:07:14.287Z,28.50
2022-11-23T05:09:44.420Z,28.58
2022-11-23T05:12:21.795Z,24.95
2022-11-23T05:14:48.985Z,26.98
2022-11-23T05:17:21.460Z,25.90
2022-11-23T05:19:51.148Z,23.30
2022-11-23T05:22:18.743Z,21.48
2022-11-23T05:24:45.985Z,22.42
2022-11-23T05:27:17.919Z,23.13
2022-11-23T05:29:45.699Z,23.80
2022-11-23T05:32:12.944Z,23.33
2022-11-23T05:34:40.176Z,26.02
2022-11-23T05:37:09.905Z,22.38
2022-11-23T05:39:43.252Z,21.52
2022-11-23T05:42:10.481Z,21.33
2022-11-23T05:44:41.257Z,19.95
2022-11-23T05:47:14.348Z,16.60
2022-11-23T05:49:41.741Z,18.65
2022-11-23T05:52:09.108Z,16.65
2022-11-23T05:54:38.095Z,17.48
2022-11-23T05:57:10.716Z,18.05
2022-11-23T05:59:41.826Z,17.40
2022-11-23T06:02:13.012Z,19.80
2022-11-23T06:04:40.299Z,18.58
2022-11-23T06:07:11.662Z,21.23
2022-11-23T06:09:59.629Z,20.80
2022-11-23T06:12:30.976Z,22.15
2022-11-23T06:14:59.691Z,22.48
2022-11-23T06:17:28.160Z,21.00
2022-11-23T06:20:00.883Z,19.65
2022-11-23T06:22:28.319Z,20.75
2022-11-23T06:25:01.618Z,24.15
2022-11-23T06:27:40.117Z,19.60
2022-11-23T06:30:16.213Z,18.00
2022-11-23T06:32:43.893Z,17.15
2022-11-23T06:35:11.132Z,18.58
2022-11-23T06:37:42.652Z,19.35
2022-11-23T06:40:12.365Z,18.23
2022-11-23T06:42:40.701Z,19.23
2022-11-23T06:45:19.415Z,19.05
2022-11-23T06:47:48.772Z,20.20
2022-11-23T06:50:16.447Z,18.73
2022-11-23T06:52:46.148Z,18.35
2022-11-23T06:55:13.863Z,20.35
2022-11-23T06:57:41.111Z,20.58
2022-11-23T07:00:11.429Z,22.70
2022-11-23T07:02:39.291Z,21.80
2022-11-23T07:05:07.233Z,23.33
2022-11-23T07:07:36.627Z,24.35
2022-11-23T07:10:13.687Z,21.92
2022-11-23T07:12:50.909Z,22.55
2022-11-23T07:15:20.867Z,22.75
2022-11-23T07:17:48.664Z,23.00
2022-11-23T07:20:16.610Z,23.48
2022-11-23T07:22:45.104Z,24.35
2022-11-23T07:25:16.528Z,23.02
2022-11-23T07:27:44.306Z,23.00
2022-11-23T07:30:12.696Z,22.70
2022-11-23T07:32:40.068Z,21.58
2022-11-23T07:35:08.741Z,20.15
2022-11-23T07:37:38.629Z,22.23
2022-11-23T07:40:07.406Z,22.02
2022-11-23T07:42:41.489Z,22.38
2022-11-23T07:45:12.196Z,23.58
2022-11-23T07:47:43.983Z,23.65
2022-11-23T07:50:13.351Z,23.48
2022-11-23T07:52:41.578Z,24.80
2022-11-23T07:55:09.525Z,23.80
2022-11-23T07:57:36.725Z,23.65
2022-11-23T08:00:05.282Z,25.00
2022-11-23T08:02:57.895Z,24.30
2022-11-23T08:05:28.012Z,22.92
2022-11-23T08:08:00.837Z,24.45
2022-11-23T08:10:30.875Z,23.00
2022-11-23T08:13:05.017Z,24.38
2022-11-23T08:15:33.023Z,24.77
2022-11-23T08:18:04.464Z,25.50
2022-11-23T08:20:33.424Z,25.58
2022-11-23T08:23:00.736Z,28.92
2022-11-23T08:25:29.769Z,25.45
2022-11-23T08:28:03.980Z,26.85
2022-11-23T08:30:33.930Z,27.05
2022-11-23T08:33:08.920Z,28.35
2022-11-23T08:35:38.897Z,28.02
2022-11-23T08:38:08.897Z,25.08
2022-11-23T08:40:37.876Z,25.33
2022-11-23T08:43:06.342Z,25.02
2022-11-23T08:45:33.616Z,19.15
2022-11-23T08:48:02.861Z,22.48
2022-11-23T08:50:30.726Z,23.05
2022-11-23T08:52:59.570Z,22.10
2022-11-23T08:55:29.071Z,22.20
2022-11-23T08:58:00.373Z,21.30
2022-11-23T09:00:29.576Z,22.15
2022-11-23T09:02:58.971Z,20.00
2022-11-23T09:05:29.149Z,17.77
2022-11-23T09:08:00.712Z,17.05
2022-11-23T09:10:28.609Z,15.43
2022-11-23T09:12:55.874Z,13.00
2022-11-23T09:15:23.730Z,14.73
2022-11-23T09:17:51.016Z,14.65
2022-11-23T09:20:18.625Z,12.38
2022-11-23T09:22:55.463Z,13.98
2022-11-23T09:25:23.628Z,10.90
2022-11-23T09:27:58.699Z,10.52
2022-11-23T09:30:27.824Z,10.88
2022-11-23T09:32:58.193Z,10.80
2022-11-23T09:35:25.771Z,10.27
2022-11-23T09:37:58.721Z,9.40
2022-11-23T09:40:37.585Z,9.10
2022-11-23T09:43:40.855Z,8.77
2022-11-23T09:46:27.709Z,6.50
2022-11-23T09:49:14.726Z,7.70
2022-11-23T09:51:43.517Z,7.40
2022-11-23T09:54:34.382Z,6.57
2022-11-23T09:57:04.749Z,6.70
2022-11-23T09:59:43.022Z,6.05
2022-11-23T10:02:28.737Z,6.47
2022-11-23T10:05:00.407Z,7.55
2022-11-23T10:08:09.156Z,6.95
2022-11-23T10:11:11.228Z,7.30
2022-11-23T10:14:19.244Z,6.38
2022-11-23T10:16:59.001Z,6.38
2022-11-23T10:20:03.410Z,6.03
2022-11-23T10:23:00.413Z,7.55
2022-11-23T10:26:00.303Z,6.32
2022-11-23T10:28:32.558Z,5.90
2022-11-23T10:31:21.331Z,5.43
2022-11-23T10:34:23.737Z,5.28
2022-11-23T10:36:50.953Z,5.63
2022-11-23T10:39:26.501Z,5.18
2022-11-23T10:41:59.962Z,5.50
2022-11-23T10:44:36.732Z,5.68
2022-11-23T10:47:05.080Z,5.55
2022-11-23T10:49:36.955Z,5.30
2022-11-23T10:52:30.979Z,5.68
2022-11-23T10:55:02.197Z,5.47
2022-11-23T10:57:44.877Z,5.30
2022-11-23T11:00:15.666Z,5.13
2022-11-23T11:02:49.439Z,4.63
2022-11-23T11:08:34.205Z,5.05
2022-11-23T11:11:33.513Z,5.22
2022-11-23T11:14:23.270Z,4.85
2022-11-23T11:16:57.965Z,4.40
2022-11-23T11:19:30.830Z,5.05
2022-11-23T11:22:04.704Z,4.50
2022-11-23T11:24:46.810Z,4.25
2022-11-23T11:27:20.462Z,4.80
2022-11-23T11:29:52.296Z,4.63
2022-11-23T11:33:13.836Z,4.47
2022-11-23T11:35:50.434Z,4.18
2022-11-23T11:38:27.806Z,4.57
2022-11-23T11:40:59.566Z,4.15
2022-11-23T11:43:40.561Z,4.35
2022-11-23T11:46:35.455Z,4.07
2022-11-23T11:49:35.378Z,3.85
2022-11-23T11:52:15.573Z,3.70
2022-11-23T11:55:14.323Z,3.65
2022-11-23T11:57:52.156Z,4.35
2022-11-23T12:00:21.473Z,4.20
2022-11-23T12:03:30.865Z,5.38
2022-11-23T12:06:16.128Z,4.90
2022-11-23T12:09:16.718Z,4.00
2022-11-23T12:11:44.188Z,4.20
2022-11-23T12:14:16.440Z,4.30
2022-11-23T12:17:32.019Z,3.97
2022-11-23T12:20:58.990Z,3.92
2022-11-23T12:23:38.592Z,4.18
2022-11-23T12:26:45.658Z,4.30
2022-11-23T12:33:00.177Z,3.63
2022-11-23T12:36:03.956Z,4.82
2022-11-23T12:38:50.730Z,3.58
2022-11-23T12:41:45.232Z,3.55
2022-11-23T12:44:47.936Z,4.20
2022-11-23T12:47:42.866Z,4.20
2022-11-23T12:50:38.285Z,5.32
2022-11-23T12:53:50.130Z,5.13
2022-11-23T12:57:14.987Z,3.78
2022-11-23T13:00:16.100Z,3.58
2022-11-23T13:02:58.292Z,3.97
2022-11-23T13:05:52.392Z,4.00
2022-11-23T13:08:47.225Z,3.63
2022-11-23T13:11:50.592Z,3.92
2022-11-23T13:15:07.232Z,4.35
2022-11-23T13:18:00.088Z,3.70
2022-11-23T13:20:50.287Z,3.47
2022-11-23T13:23:21.588Z,3.38
2022-11-23T13:26:26.472Z,4.30
2022-11-23T13:29:00.298Z,3.97
2022-11-23T13:31:31.690Z,3.22
2022-11-23T13:34:02.673Z,3.35
2022-11-23T13:36:49.201Z,3.25
2022-11-23T13:39:47.560Z,3.47
2022-11-23T13:42:15.230Z,3.30
2022-11-23T13:44:42.484Z,3.42
2022-11-23T13:47:16.240Z,4.20
2022-11-23T13:49:52.718Z,4.10
2022-11-23T13:52:22.871Z,3.45
2022-11-23T13:55:33.648Z,4.10
2022-11-23T13:58:27.052Z,3.35
2022-11-23T14:00:57.999Z,4.00
2022-11-23T14:03:49.118Z,3.80
2022-11-23T14:06:57.195Z,4.40
2022-11-23T14:09:54.152Z,3.70
2022-11-23T14:12:48.946Z,3.30
2022-11-23T14:15:28.108Z,3.10
2022-11-23T14:18:04.040Z,3.55
2022-11-23T14:20:56.402Z,3.13
2022-11-23T14:24:00.699Z,3.80
2022-11-23T14:27:45.296Z,3.87
2022-11-23T14:30:57.555Z,3.63
2022-11-23T14:33:39.578Z,4.53
2022-11-23T14:36:17.771Z,4.47
2022-11-23T14:39:47.630Z,4.68
2022-11-23T14:42:23.525Z,4.63
2022-11-23T14:44:52.427Z,4.53
2022-11-23T14:47:31.742Z,4.68
2022-11-23T14:49:59.111Z,4.50
2022-11-23T14:52:32.352Z,4.38
2022-11-23T14:55:05.978Z,4.03
2022-11-23T14:57:46.314Z,4.22
2022-11-23T15:00:37.279Z,3.88
2022-11-23T15:03:49.579Z,3.92
2022-11-23T15:06:16.567Z,4.38
2022-11-23T15:09:13.313Z,4.43
2022-11-23T15:14:21.561Z,4.88
2022-11-23T15:16:49.404Z,4.70
2022-11-23T15:19:29.449Z,5.35
2022-11-23T15:21:57.569Z,5.70
2022-11-23T15:24:27.247Z,5.18
2022-11-23T15:27:12.042Z,5.43
2022-11-23T15:29:39.901Z,6.38
2022-11-23T15:32:33.288Z,5.85
2022-11-23T15:35:07.820Z,5.60
2022-11-23T15:37:46.934Z,4.95
2022-11-23T15:40:19.439Z,5.30
2022-11-23T15:42:50.888Z,5.20
2022-11-23T15:45:53.308Z,8.70
2022-11-23T15:48:32.642Z,7.60
2022-11-23T15:51:05.472Z,6.63
2022-11-23T15:53:53.150Z,6.60
2022-11-23T15:56:37.438Z,7.38
2022-11-23T15:59:51.796Z,8.75
2022-11-23T16:02:25.728Z,7.47
2022-11-23T16:05:17.345Z,6.93
2022-11-23T16:08:00.106Z,7.45
2022-11-23T16:10:37.473Z,8.15
2022-11-23T16:13:08.730Z,7.88
2022-11-23T16:15:38.711Z,7.90
2022-11-23T16:18:12.830Z,8.27
2022-11-23T16:20:52.151Z,8.30
2022-11-23T16:23:25.577Z,9.70
2022-11-23T16:26:04.324Z,9.70
2022-11-23T16:28:35.057Z,10.77
2022-11-23T16:31:03.154Z,11.25
2022-11-23T16:33:30.439Z,11.13
2022-11-23T16:35:57.824Z,11.57
2022-11-23T16:38:25.504Z,12.02
2022-11-23T16:40:52.812Z,12.57
2022-11-23T16:43:20.151Z,11.32
2022-11-23T16:45:51.163Z,11.82
2022-11-23T16:48:41.002Z,12.15
2022-11-23T16:51:11.609Z,12.15
2022-11-23T16:54:11.832Z,15.40
2022-11-23T16:56:31.026Z,13.27
2022-11-23T16:58:58.241Z,13.25
2022-11-23T17:01:29.622Z,14.55
2022-11-23T17:03:57.044Z,15.07
2022-11-23T17:06:24.465Z,17.40
2022-11-23T17:09:00.483Z,17.08
2022-11-23T17:11:36.895Z,17.17
2022-11-23T17:14:04.590Z,16.13
2022-11-23T17:16:33.200Z,19.05
2022-11-23T17:19:00.520Z,20.13
2022-11-23T17:21:27.688Z,24.50
2022-11-23T17:23:54.988Z,26.27
2022-11-23T17:26:40.445Z,25.35
2022-11-23T17:29:19.358Z,25.67
2022-11-23T17:31:47.820Z,23.33
2022-11-23T17:34:16.364Z,23.88
2022-11-23T17:36:46.557Z,27.90
2022-11-23T17:39:28.263Z,29.88
2022-11-23T17:42:03.077Z,29.50
2022-11-23T17:44:32.633Z,31.93
2022-11-23T17:47:00.538Z,35.90
2022-11-23T17:49:28.532Z,28.45
2022-11-23T17:51:56.307Z,24.77
2022-11-23T17:54:24.378Z,22.75
2022-11-23T17:56:52.178Z,23.10
2022-11-23T17:59:19.619Z,20.33
2022-11-23T18:01:46.925Z,21.25
2022-11-23T18:04:14.192Z,21.70
2022-11-23T18:06:41.435Z,21.92
2022-11-23T18:09:11.673Z,24.42
2022-11-23T18:11:38.913Z,27.23
2022-11-23T18:14:06.289Z,25.15
2022-11-23T18:16:33.575Z,23.70
2022-11-23T18:19:00.781Z,23.80
2022-11-23T18:21:27.924Z,23.05
2022-11-23T18:23:57.903Z,22.73
2022-11-23T18:26:29.683Z,24.70
2022-11-23T18:28:57.892Z,28.35
2022-11-23T18:31:25.133Z,30.88
2022-11-23T18:33:52.424Z,27.55
2022-11-23T18:36:20.279Z,30.20
2022-11-23T18:38:48.118Z,29.70
2022-11-23T18:41:17.328Z,31.40
2022-11-23T18:43:45.551Z,33.25
2022-11-23T18:46:21.343Z,31.20
2022-11-23T18:48:50.536Z,30.58
2022-11-23T18:51:18.979Z,33.25
2022-11-23T18:53:47.810Z,30.10
2022-11-23T18:56:15.468Z,29.92
2022-11-23T18:58:45.725Z,32.40
2022-11-23T19:01:20.400Z,33.45
2022-11-23T19:03:51.740Z,30.00
2022-11-23T19:06:22.449Z,29.45
2022-11-23T19:08:53.851Z,27.75
2022-11-23T19:11:25.665Z,27.63
2022-11-23T19:13:58.793Z,26.58
2022-11-23T19:16:31.300Z,27.10
2022-11-23T19:19:04.049Z,26.90
2022-11-23T19:21:34.370Z,26.08
2022-11-23T19:24:02.332Z,25.42
2022-11-23T19:26:31.044Z,26.40
2022-11-23T19:28:59.360Z,25.60
2022-11-23T19:31:30.454Z,25.38
2022-11-23T19:34:01.313Z,24.95
2022-11-23T19:36:30.932Z,25.30
2022-11-23T19:39:00.523Z,27.88
2022-11-23T19:41:30.679Z,29.50
2022-11-23T19:44:00.599Z,28.52
2022-11-23T19:46:30.767Z,28.98
2022-11-23T19:48:58.849Z,27.45
2022-11-23T19:51:27.904Z,28.05
2022-11-23T19:53:57.567Z,27.58
2022-11-23T19:56:28.757Z,27.88
2022-11-23T19:59:00.248Z,28.88
2022-11-23T20:01:32.762Z,32.17
2022-11-23T20:04:08.694Z,37.65
2022-11-23T20:06:41.993Z,32.53
2022-11-23T20:09:22.543Z,28.85
2022-11-23T20:11:51.810Z,31.08
2022-11-23T20:14:20.472Z,31.20
2022-11-23T20:16:48.215Z,29.38
2022-11-23T20:19:15.463Z,29.10
2022-11-23T20:21:42.722Z,25.45
2022-11-23T20:24:15.337Z,28.20
2022-11-23T20:26:43.208Z,29.38
2022-11-23T20:29:11.364Z,29.92
2022-11-23T20:31:38.927Z,29.17
2022-11-23T20:34:08.834Z,29.17
2022-11-23T20:36:38.491Z,29.30
2022-11-23T20:39:10.893Z,28.45
2022-11-23T20:41:39.007Z,26.60
2022-11-23T20:44:14.707Z,27.13
2022-11-23T20:49:32.820Z,29.27
2022-11-23T20:52:01.811Z,36.20
2022-11-23T20:54:29.401Z,27.40
2022-11-23T20:56:59.840Z,24.42
2022-11-23T20:59:27.294Z,22.80
2022-11-23T21:01:54.712Z,22.90
2022-11-23T21:04:21.949Z,22.88
2022-11-23T21:06:49.157Z,23.60
2022-11-23T21:09:17.030Z,22.88
2022-11-23T21:12:03.150Z,29.38
2022-11-23T21:17:01.290Z,28.63
2022-11-23T21:19:34.114Z,29.73
2022-11-23T21:22:12.894Z,31.27
2022-11-23T21:24:41.206Z,30.58
2022-11-23T21:27:13.149Z,30.63
2022-11-23T21:29:40.574Z,33.10
2022-11-23T21:32:07.795Z,30.77
2022-11-23T21:34:35.479Z,32.35
2022-11-23T21:37:02.800Z,30.30
2022-11-23T21:39:31.013Z,30.48
2022-11-23T21:41:58.741Z,32.20
2022-11-23T21:44:26.407Z,27.30
2022-11-23T21:46:53.759Z,28.08
2022-11-23T21:49:21.235Z,29.77
2022-11-23T21:51:48.704Z,30.63
2022-11-23T21:54:16.441Z,29.25
2022-11-23T21:56:46.041Z,28.98
2022-11-23T21:59:13.493Z,31.85
2022-11-23T22:01:41.959Z,30.60
2022-11-23T22:04:15.269Z,29.63
2022-11-23T22:06:44.454Z,28.98
2022-11-23T22:09:13.119Z,29.20
2022-11-23T22:11:43.249Z,30.60
2022-11-23T22:14:14.804Z,30.92
2022-11-23T22:16:49.599Z,30.60
2022-11-23T22:19:17.486Z,33.35
2022-11-23T22:21:46.668Z,33.22
2022-11-23T22:24:18.001Z,34.40
2022-11-23T22:26:47.472Z,33.88
2022-11-23T22:29:15.852Z,32.53
2022-11-23T22:31:43.655Z,30.75
2022-11-23T22:34:13.978Z,34.72
2022-11-23T22:36:41.926Z,33.15
2022-11-23T22:39:09.945Z,30.88
2022-11-23T22:41:38.166Z,30.50
2022-11-23T22:44:10.739Z,33.28
2022-11-23T22:46:39.409Z,31.60
2022-11-23T22:49:06.875Z,32.08
2022-11-23T22:51:34.206Z,31.80
2022-11-23T22:54:01.984Z,28.90
2022-11-23T22:56:30.794Z,28.73
2022-11-23T22:58:58.474Z,31.13
2022-11-23T23:01:29.948Z,30.45
2022-11-23T23:04:01.426Z,29.48
2022-11-23T23:06:36.577Z,30.35
2022-11-23T23:09:07.223Z,29.33
2022-11-23T23:11:36.339Z,28.60
2022-11-23T23:14:04.029Z,28.25
2022-11-23T23:16:31.575Z,29.52
2022-11-23T23:18:59.831Z,28.10
2022-11-23T23:21:29.795Z,29.15
2022-11-23T23:24:01.024Z,29.08
2022-11-23T23:26:29.758Z,37.60
2022-11-23T23:29:00.424Z,38.28
2022-11-23T23:31:29.268Z,35.05
2022-11-23T23:33:57.121Z,34.88
2022-11-23T23:36:24.756Z,37.75
2022-11-23T23:38:52.652Z,34.40
2022-11-23T23:41:20.583Z,33.15
2022-11-23T23:43:50.968Z,30.08
2022-11-23T23:46:18.360Z,28.48
2022-11-23T23:48:46.146Z,27.00
2022-11-23T23:51:17.820Z,29.98
2022-11-23T23:53:46.718Z,27.48
2022-11-23T23:56:25.652Z,29.25
2022-11-23T23:58:56.873Z,27.40
